createdAt,value
2022-11-05T00:00:02.009Z,97547.47
2022-11-05T00:01:27.363Z,97554.66
2022-11-05T00:02:48.509Z,97553.84
2022-11-05T00:04:09.706Z,97561.81
2022-11-05T00:05:31.829Z,97561.81
2022-11-05T00:06:52.773Z,97566.91
2022-11-05T00:08:13.849Z,97563.47
2022-11-05T00:09:32.943Z,97563.31
2022-11-05T00:10:38.412Z,97573.59
2022-11-05T00:11:59.673Z,97564.75
2022-11-05T00:13:20.749Z,97575.09
2022-11-05T00:14:42.570Z,97576.88
2022-11-05T00:16:05.393Z,97576.88
2022-11-05T00:17:09.104Z,97574.91
2022-11-05T00:18:11.760Z,97587.00
2022-11-05T00:19:16.922Z,97592.06
2022-11-05T00:20:19.730Z,97585.88
2022-11-05T00:21:41.049Z,97589.94
2022-11-05T00:23:16.598Z,97588.94
2022-11-05T00:24:38.001Z,97590.59
2022-11-05T00:25:41.721Z,97595.84
2022-11-05T00:26:44.441Z,97600.91
2022-11-05T00:27:49.621Z,97606.94
2022-11-05T00:28:52.333Z,97610.19
2022-11-05T00:29:56.053Z,97602.34
2022-11-05T00:31:03.213Z,97605.63
2022-11-05T00:32:07.111Z,97610.88
2022-11-05T00:33:11.355Z,97608.25
2022-11-05T00:34:14.256Z,97610.06
2022-11-05T00:35:18.759Z,97611.03
2022-11-05T00:36:22.501Z,97608.25
2022-11-05T00:37:25.222Z,97611.03
2022-11-05T00:38:28.932Z,97611.84
2022-11-05T00:39:31.641Z,97607.56
2022-11-05T00:40:35.570Z,97609.25
2022-11-05T00:41:38.272Z,97602.34
2022-11-05T00:43:00.965Z,97608.56
2022-11-05T00:44:21.881Z,97612.34
2022-11-05T00:45:25.711Z,97622.28
2022-11-05T00:46:29.771Z,97610.38
2022-11-05T00:47:52.080Z,97621.31
2022-11-05T00:49:13.251Z,97619.31
2022-11-05T00:50:17.312Z,97622.56
2022-11-05T00:51:21.307Z,97612.44
2022-11-05T00:52:41.354Z,97615.38
2022-11-05T00:53:45.099Z,97607.19
2022-11-05T00:54:47.779Z,97617.13
2022-11-05T00:55:51.474Z,97620.09
2022-11-05T00:56:54.158Z,97616.97
2022-11-05T00:57:58.632Z,97613.69
2022-11-05T00:59:02.473Z,97600.31
2022-11-05T01:00:06.157Z,97607.63
2022-11-05T01:01:11.881Z,97608.91
2022-11-05T01:02:16.673Z,97607.44
2022-11-05T01:03:22.169Z,97600.09
2022-11-05T01:04:25.120Z,97602.19
2022-11-05T01:05:29.160Z,97601.69
2022-11-05T01:06:32.820Z,97608.19
2022-11-05T01:07:35.539Z,97600.66
2022-11-05T01:08:39.651Z,97609.66
2022-11-05T01:09:42.349Z,97609.94
2022-11-05T01:10:47.684Z,97599.00
2022-11-05T01:11:51.557Z,97609.75
2022-11-05T01:12:55.852Z,97613.50
2022-11-05T01:13:58.621Z,97619.03
2022-11-05T01:15:02.523Z,97615.75
2022-11-05T01:16:06.988Z,97617.69
2022-11-05T01:17:10.729Z,97623.09
2022-11-05T01:18:14.900Z,97625.81
2022-11-05T01:19:18.631Z,97625.19
2022-11-05T01:20:21.535Z,97623.69
2022-11-05T01:21:25.319Z,97622.03
2022-11-05T01:22:28.023Z,97623.19
2022-11-05T01:23:31.781Z,97622.38
2022-11-05T01:24:37.439Z,97628.66
2022-11-05T01:25:41.109Z,97621.81
2022-11-05T01:26:43.790Z,97626.22
2022-11-05T01:27:47.577Z,97629.81
2022-11-05T01:28:52.956Z,97635.16
2022-11-05T01:29:56.811Z,97636.97
2022-11-05T01:31:00.536Z,97635.31
2022-11-05T01:32:03.243Z,97637.13
2022-11-05T01:33:07.120Z,97637.13
2022-11-05T01:34:11.243Z,97643.97
2022-11-05T01:35:16.681Z,97650.00
2022-11-05T01:36:19.482Z,97649.19
2022-11-05T01:37:23.295Z,97645.59
2022-11-05T01:38:27.054Z,97647.38
2022-11-05T01:39:29.695Z,97649.19
2022-11-05T01:40:33.908Z,97658.81
2022-11-05T01:41:36.591Z,97655.38
2022-11-05T01:42:40.403Z,97654.41
2022-11-05T01:43:48.410Z,97656.03
2022-11-05T01:45:01.365Z,97654.41
2022-11-05T01:46:05.200Z,97659.94
2022-11-05T01:47:08.114Z,97660.06
2022-11-05T01:48:16.031Z,97659.41
2022-11-05T01:49:24.211Z,97655.31
2022-11-05T01:50:35.401Z,97663.28
2022-11-05T01:51:39.250Z,97667.97
2022-11-05T01:52:41.943Z,97668.16
2022-11-05T01:53:48.501Z,97670.22
2022-11-05T01:54:51.471Z,97669.56
2022-11-05T01:56:01.424Z,97674.13
2022-11-05T01:57:07.315Z,97682.09
2022-11-05T01:58:13.671Z,97685.66
2022-11-05T01:59:21.307Z,97678.81
2022-11-05T02:00:24.091Z,97680.78
2022-11-05T02:01:28.172Z,97678.16
2022-11-05T02:02:31.715Z,97673.06
2022-11-05T02:03:36.245Z,97683.50
2022-11-05T02:04:44.452Z,97676.66
2022-11-05T02:05:49.880Z,97677.63
2022-11-05T02:06:53.434Z,97683.94
2022-11-05T02:07:57.592Z,97687.69
2022-11-05T02:09:03.911Z,97685.38
2022-11-05T02:10:10.059Z,97694.16
2022-11-05T02:11:13.850Z,97690.09
2022-11-05T02:12:17.621Z,97695.31
2022-11-05T02:13:21.357Z,97703.13
2022-11-05T02:14:24.352Z,97703.94
2022-11-05T02:15:35.150Z,97703.94
2022-11-05T02:16:41.990Z,97715.19
2022-11-05T02:17:53.111Z,97708.19
2022-11-05T02:19:00.491Z,97711.75
2022-11-05T02:20:19.932Z,97704.88
2022-11-05T02:21:58.813Z,97705.84
2022-11-05T02:23:42.722Z,97709.59
2022-11-05T02:25:02.174Z,97708.25
2022-11-05T02:26:22.750Z,97711.97
2022-11-05T02:27:42.823Z,97710.63
2022-11-05T02:29:10.700Z,97708.31
2022-11-05T02:30:44.259Z,97704.66
2022-11-05T02:31:49.607Z,97693.56
2022-11-05T02:33:12.628Z,97701.69
2022-11-05T02:34:21.850Z,97705.53
2022-11-05T02:35:36.483Z,97697.06
2022-11-05T02:36:45.285Z,97694.59
2022-11-05T02:37:52.677Z,97692.13
2022-11-05T02:39:05.556Z,97699.28
2022-11-05T02:40:15.381Z,97700.38
2022-11-05T02:41:25.830Z,97699.56
2022-11-05T02:42:36.029Z,97705.91
2022-11-05T02:43:48.760Z,97705.06
2022-11-05T02:44:56.926Z,97718.09
2022-11-05T02:46:07.686Z,97713.84
2022-11-05T02:47:18.252Z,97714.00
2022-11-05T02:48:27.342Z,97710.56
2022-11-05T02:49:39.832Z,97715.78
2022-11-05T02:50:50.338Z,97719.34
2022-11-05T02:51:57.466Z,97716.06
2022-11-05T02:53:03.214Z,97711.00
2022-11-05T02:54:09.749Z,97712.78
2022-11-05T02:55:20.597Z,97717.19
2022-11-05T02:56:27.311Z,97716.38
2022-11-05T02:57:30.500Z,97718.16
2022-11-05T02:58:35.869Z,97720.75
2022-11-05T02:59:38.563Z,97726.78
2022-11-05T03:00:46.099Z,97725.00
2022-11-05T03:01:50.964Z,97737.22
2022-11-05T03:02:54.859Z,97737.22
2022-11-05T03:03:59.052Z,97741.59
2022-11-05T03:05:02.849Z,97740.75
2022-11-05T03:06:26.660Z,97741.59
2022-11-05T03:07:39.873Z,97753.13
2022-11-05T03:08:53.633Z,97748.56
2022-11-05T03:10:27.690Z,97755.72
2022-11-05T03:11:32.344Z,97752.28
2022-11-05T03:12:44.680Z,97753.13
2022-11-05T03:13:53.721Z,97755.88
2022-11-05T03:15:01.128Z,97754.09
2022-11-05T03:16:10.111Z,97761.91
2022-11-05T03:17:22.804Z,97756.69
2022-11-05T03:18:30.418Z,97762.88
2022-11-05T03:19:38.784Z,97755.06
2022-11-05T03:20:47.841Z,97763.69
2022-11-05T03:21:54.448Z,97758.59
2022-11-05T03:23:03.934Z,97774.22
2022-11-05T03:24:10.989Z,97777.78
2022-11-05T03:25:17.881Z,97772.75
2022-11-05T03:26:24.022Z,97787.53
2022-11-05T03:27:30.848Z,97789.34
2022-11-05T03:28:36.989Z,97794.53
2022-11-05T03:29:44.093Z,97793.72
2022-11-05T03:30:48.779Z,97793.72
2022-11-05T03:31:54.663Z,97792.06
2022-11-05T03:33:00.812Z,97792.06
2022-11-05T03:34:06.302Z,97790.41
2022-11-05T03:35:11.752Z,97794.97
2022-11-05T03:36:18.772Z,97795.94
2022-11-05T03:37:23.357Z,97799.47
2022-11-05T03:38:29.225Z,97793.59
2022-11-05T03:39:36.532Z,97790.19
2022-11-05T03:40:40.805Z,97789.50
2022-11-05T03:41:44.924Z,97783.50
2022-11-05T03:42:53.881Z,97788.69
2022-11-05T03:43:59.420Z,97791.56
2022-11-05T03:45:07.179Z,97793.34
2022-11-05T03:46:12.512Z,97794.31
2022-11-05T03:47:19.521Z,97789.13
2022-11-05T03:48:24.921Z,97797.75
2022-11-05T03:49:32.321Z,97791.56
2022-11-05T03:50:41.413Z,97791.41
2022-11-05T03:51:51.252Z,97804.97
2022-11-05T03:52:55.450Z,97814.44
2022-11-05T03:54:01.489Z,97811.56
2022-11-05T03:55:04.750Z,97816.47
2022-11-05T03:56:12.141Z,97811.13
2022-11-05T03:57:19.709Z,97814.25
2022-11-05T03:58:23.920Z,97807.13
2022-11-05T03:59:26.904Z,97810.41
2022-11-05T04:00:30.731Z,97804.22
2022-11-05T04:01:33.728Z,97808.19
2022-11-05T04:02:39.304Z,97803.00
2022-11-05T04:03:43.420Z,97812.31
2022-11-05T04:04:47.182Z,97807.78
2022-11-05T04:06:10.091Z,97800.78
2022-11-05T04:07:31.606Z,97797.19
2022-11-05T04:08:52.782Z,97798.84
2022-11-05T04:10:13.979Z,97798.84
2022-11-05T04:11:34.943Z,97805.84
2022-11-05T04:12:55.804Z,97809.13
2022-11-05T04:13:59.531Z,97822.97
2022-11-05T04:15:02.423Z,97814.19
2022-11-05T04:16:24.120Z,97815.97
2022-11-05T04:17:27.847Z,97826.25
2022-11-05T04:18:30.489Z,97821.84
2022-11-05T04:19:53.009Z,97821.72
2022-11-05T04:21:13.469Z,97824.34
2022-11-05T04:22:34.571Z,97824.34
2022-11-05T04:24:04.301Z,97822.56
2022-11-05T04:25:08.529Z,97832.97
2022-11-05T04:26:11.282Z,97832.00
2022-11-05T04:27:15.005Z,97824.03
2022-11-05T04:28:17.743Z,97820.47
2022-11-05T04:29:38.470Z,97824.72
2022-11-05T04:30:44.463Z,97820.47
2022-11-05T04:31:47.153Z,97833.38
2022-11-05T04:33:01.759Z,97815.94
2022-11-05T04:34:05.873Z,97814.31
2022-11-05T04:35:10.002Z,97817.72
2022-11-05T04:36:13.762Z,97820.34
2022-11-05T04:37:16.633Z,97816.75
2022-11-05T04:38:21.649Z,97823.75
2022-11-05T04:39:24.372Z,97825.41
2022-11-05T04:40:28.320Z,97821.97
2022-11-05T04:41:30.994Z,97820.19
2022-11-05T04:42:34.772Z,97818.53
2022-11-05T04:43:37.521Z,97817.72
2022-11-05T04:44:41.201Z,97813.34
2022-11-05T04:45:44.053Z,97810.72
2022-11-05T04:46:47.830Z,97818.53
2022-11-05T04:47:50.741Z,97811.56
2022-11-05T04:48:54.530Z,97814.97
2022-11-05T04:49:58.251Z,97815.13
2022-11-05T04:51:02.532Z,97817.72
2022-11-05T04:52:06.580Z,97810.84
2022-11-05T04:53:10.482Z,97817.84
2022-11-05T04:54:13.354Z,97815.25
2022-11-05T04:55:17.309Z,97818.81
2022-11-05T04:56:21.820Z,97816.22
2022-11-05T04:57:25.663Z,97815.41
2022-11-05T04:58:28.450Z,97817.19
2022-11-05T04:59:32.171Z,97818.00
2022-11-05T05:00:34.848Z,97823.22
2022-11-05T05:01:38.899Z,97832.81
2022-11-05T05:02:41.741Z,97835.56
2022-11-05T05:03:47.660Z,97830.38
2022-11-05T05:04:50.380Z,97831.34
2022-11-05T05:05:54.533Z,97826.13
2022-11-05T05:07:00.410Z,97830.47
2022-11-05T05:08:04.583Z,97832.28
2022-11-05T05:09:07.331Z,97827.22
2022-11-05T05:10:12.138Z,97828.84
2022-11-05T05:11:16.984Z,97822.97
2022-11-05T05:12:20.720Z,97823.94
2022-11-05T05:13:23.491Z,97824.88
2022-11-05T05:14:27.431Z,97823.25
2022-11-05T05:15:30.110Z,97820.66
2022-11-05T05:16:33.840Z,97825.84
2022-11-05T05:17:37.662Z,97832.84
2022-11-05T05:18:45.905Z,97830.41
2022-11-05T05:20:07.524Z,97829.59
2022-11-05T05:21:28.738Z,97837.50
2022-11-05T05:22:33.876Z,97835.06
2022-11-05T05:23:36.571Z,97841.09
2022-11-05T05:24:40.350Z,97849.72
2022-11-05T05:25:43.002Z,97848.78
2022-11-05T05:26:48.549Z,97851.25
2022-11-05T05:27:51.433Z,97854.50
2022-11-05T05:28:55.447Z,97857.13
2022-11-05T05:29:58.541Z,97850.94
2022-11-05T05:31:02.683Z,97859.72
2022-11-05T05:32:06.240Z,97858.75
2022-11-05T05:33:10.266Z,97850.94
2022-11-05T05:34:14.572Z,97850.94
2022-11-05T05:35:18.460Z,97846.56
2022-11-05T05:36:21.341Z,97850.00
2022-11-05T05:37:25.182Z,97844.63
2022-11-05T05:38:29.561Z,97846.41
2022-11-05T05:39:33.331Z,97849.69
2022-11-05T05:40:36.011Z,97852.19
2022-11-05T05:41:39.920Z,97859.84
2022-11-05T05:42:43.617Z,97869.28
2022-11-05T05:43:47.522Z,97860.50
2022-11-05T05:44:50.251Z,97864.75
2022-11-05T05:45:53.978Z,97869.03
2022-11-05T05:46:56.736Z,97869.03
2022-11-05T05:48:00.422Z,97867.09
2022-11-05T05:49:05.529Z,97879.16
2022-11-05T05:50:13.301Z,97881.75
2022-11-05T05:51:16.003Z,97891.19
2022-11-05T05:52:20.059Z,97892.88
2022-11-05T05:53:22.915Z,97895.47
2022-11-05T05:54:32.311Z,97903.13
2022-11-05T05:55:36.954Z,97902.31
2022-11-05T05:56:40.701Z,97904.94
2022-11-05T05:57:43.433Z,97902.31
2022-11-05T05:58:47.585Z,97912.75
2022-11-05T05:59:50.320Z,97913.56
2022-11-05T06:00:54.254Z,97911.94
2022-11-05T06:01:58.102Z,97915.34
2022-11-05T06:03:00.963Z,97918.78
2022-11-05T06:04:04.867Z,97915.34
2022-11-05T06:05:08.101Z,97917.00
2022-11-05T06:06:14.306Z,97910.97
2022-11-05T06:07:18.034Z,97910.81
2022-11-05T06:08:20.795Z,97915.03
2022-11-05T06:09:25.023Z,97913.41
2022-11-05T06:10:29.380Z,97916.03
2022-11-05T06:11:33.289Z,97917.00
2022-11-05T06:12:35.929Z,97918.63
2022-11-05T06:13:39.709Z,97916.84
2022-11-05T06:14:42.350Z,97920.41
2022-11-05T06:15:46.090Z,97921.22
2022-11-05T06:16:48.814Z,97924.66
2022-11-05T06:17:52.710Z,97926.59
2022-11-05T06:18:55.461Z,97937.16
2022-11-05T06:19:59.263Z,97929.63
2022-11-05T06:21:02.601Z,97938.25
2022-11-05T06:22:06.371Z,97934.00
2022-11-05T06:23:09.356Z,97947.03
2022-11-05T06:24:13.390Z,97946.22
2022-11-05T06:25:16.198Z,97947.19
2022-11-05T06:26:21.667Z,97955.81
2022-11-05T06:27:24.483Z,97959.25
2022-11-05T06:28:28.239Z,97967.06
2022-11-05T06:29:30.963Z,97956.50
2022-11-05T06:30:34.757Z,97963.34
2022-11-05T06:31:37.552Z,97973.66
2022-11-05T06:32:41.402Z,97964.84
2022-11-05T06:33:44.161Z,97963.91
2022-11-05T06:34:47.928Z,97962.25
2022-11-05T06:35:51.726Z,97968.94
2022-11-05T06:36:55.620Z,97969.78
2022-11-05T06:38:00.159Z,97972.25
2022-11-05T06:39:03.949Z,97977.31
2022-11-05T06:40:07.719Z,97983.09
2022-11-05T06:41:11.497Z,97984.72
2022-11-05T06:42:18.768Z,97975.13
2022-11-05T06:43:23.115Z,97987.19
2022-11-05T06:44:25.841Z,97981.97
2022-11-05T06:45:29.559Z,97987.03
2022-11-05T06:46:32.209Z,97981.97
2022-11-05T06:47:35.922Z,97995.00
2022-11-05T06:48:38.973Z,97986.34
2022-11-05T06:49:42.688Z,97989.94
2022-11-05T06:50:45.898Z,98006.53
2022-11-05T06:51:49.658Z,98006.66
2022-11-05T06:52:55.950Z,98005.03
2022-11-05T06:53:59.639Z,98009.41
2022-11-05T06:55:02.364Z,98015.44
2022-11-05T06:56:06.787Z,98012.84
2022-11-05T06:57:10.096Z,98012.03
2022-11-05T06:58:15.470Z,98014.63
2022-11-05T06:59:18.260Z,98016.41
2022-11-05T07:00:22.507Z,98010.22
2022-11-05T07:01:25.480Z,98011.88
2022-11-05T07:02:29.300Z,98016.16
2022-11-05T07:03:32.080Z,98021.22
2022-11-05T07:04:35.888Z,98018.47
2022-11-05T07:05:42.150Z,98025.19
2022-11-05T07:06:45.902Z,98030.41
2022-11-05T07:07:48.588Z,98028.63
2022-11-05T07:08:52.386Z,98038.88
2022-11-05T07:09:55.138Z,98034.66
2022-11-05T07:10:58.930Z,98036.28
2022-11-05T07:12:01.580Z,98032.19
2022-11-05T07:13:08.411Z,98028.88
2022-11-05T07:14:14.070Z,98039.47
2022-11-05T07:15:16.798Z,98040.28
2022-11-05T07:16:20.636Z,98037.66
2022-11-05T07:17:23.625Z,98041.91
2022-11-05T07:18:27.481Z,98034.91
2022-11-05T07:19:30.198Z,98035.88
2022-11-05T07:20:34.708Z,98044.66
2022-11-05T07:21:38.580Z,98048.34
2022-11-05T07:22:42.449Z,98047.69
2022-11-05T07:23:46.280Z,98059.19
2022-11-05T07:24:50.231Z,98048.91
2022-11-05T07:25:54.169Z,98050.84
2022-11-05T07:26:56.997Z,98054.44
2022-11-05T07:28:01.021Z,98050.03
2022-11-05T07:29:03.761Z,98050.16
2022-11-05T07:30:12.123Z,98048.38
2022-11-05T07:31:14.928Z,98050.97
2022-11-05T07:32:19.100Z,98056.19
2022-11-05T07:33:22.716Z,98051.94
2022-11-05T07:34:27.870Z,98045.91
2022-11-05T07:35:30.931Z,98046.88
2022-11-05T07:36:35.410Z,98051.13
2022-11-05T07:37:44.462Z,98051.94
2022-11-05T07:38:48.261Z,98054.53
2022-11-05T07:39:50.868Z,98057.03
2022-11-05T07:40:54.812Z,98049.22
2022-11-05T07:41:57.994Z,98057.03
2022-11-05T07:43:10.359Z,98054.44
2022-11-05T07:44:14.649Z,98055.25
2022-11-05T07:45:20.482Z,98054.13
2022-11-05T07:46:23.309Z,98054.94
2022-11-05T07:47:27.039Z,98055.66
2022-11-05T07:48:30.753Z,98051.25
2022-11-05T07:49:34.569Z,98052.63
2022-11-05T07:50:38.338Z,98056.88
2022-11-05T07:51:42.228Z,98058.53
2022-11-05T07:52:45.290Z,98063.59
2022-11-05T07:53:49.650Z,98058.25
2022-11-05T07:54:53.555Z,98059.06
2022-11-05T07:55:59.168Z,98063.16
2022-11-05T07:57:02.065Z,98064.69
2022-11-05T07:58:05.942Z,98060.28
2022-11-05T07:59:09.181Z,98067.81
2022-11-05T08:00:14.550Z,98069.50
2022-11-05T08:01:19.734Z,98070.16
2022-11-05T08:02:22.787Z,98067.56
2022-11-05T08:03:27.102Z,98073.44
2022-11-05T08:04:29.989Z,98073.44
2022-11-05T08:05:36.772Z,98072.34
2022-11-05T08:06:40.648Z,98070.56
2022-11-05T08:07:43.422Z,98069.88
2022-11-05T08:08:47.201Z,98073.31
2022-11-05T08:09:50.039Z,98072.63
2022-11-05T08:10:53.918Z,98073.59
2022-11-05T08:12:02.689Z,98072.09
2022-11-05T08:13:08.161Z,98071.13
2022-11-05T08:14:12.242Z,98077.31
2022-11-05T08:15:14.964Z,98078.25
2022-11-05T08:16:20.181Z,98074.69
2022-11-05T08:17:22.959Z,98073.75
2022-11-05T08:18:31.654Z,98076.03
2022-11-05T08:19:34.331Z,98068.09
2022-11-05T08:20:38.774Z,98074.13
2022-11-05T08:21:41.537Z,98077.41
2022-11-05T08:22:45.972Z,98077.41
2022-11-05T08:23:48.681Z,98076.44
2022-11-05T08:24:52.466Z,98071.38
2022-11-05T08:25:57.000Z,98078.09
2022-11-05T08:27:00.932Z,98072.06
2022-11-05T08:28:05.321Z,98070.25
2022-11-05T08:29:09.171Z,98082.38
2022-11-05T08:30:12.783Z,98072.06
2022-11-05T08:31:18.878Z,98076.59
2022-11-05T08:32:23.849Z,98083.75
2022-11-05T08:33:27.713Z,98087.28
2022-11-05T08:34:30.569Z,98089.91
2022-11-05T08:35:35.761Z,98088.41
2022-11-05T08:36:40.718Z,98087.03
2022-11-05T08:37:44.610Z,98082.13
2022-11-05T08:38:47.330Z,98094.44
2022-11-05T08:39:51.050Z,98089.53
2022-11-05T08:40:56.390Z,98098.59
2022-11-05T08:42:00.132Z,98101.44
2022-11-05T08:43:04.580Z,98103.50
2022-11-05T08:44:09.369Z,98105.56
2022-11-05T08:45:12.080Z,98102.28
2022-11-05T08:46:15.876Z,98110.09
2022-11-05T08:47:18.560Z,98108.59
2022-11-05T08:48:23.793Z,98117.38
2022-11-05T08:49:26.455Z,98112.28
2022-11-05T08:50:30.418Z,98106.53
2022-11-05T08:51:33.156Z,98114.47
2022-11-05T08:52:36.946Z,98115.44
2022-11-05T08:53:39.582Z,98118.19
2022-11-05T08:54:43.871Z,98115.72
2022-11-05T08:55:47.949Z,98120.22
2022-11-05T08:56:51.669Z,98120.22
2022-11-05T08:57:56.668Z,98121.88
2022-11-05T08:59:01.029Z,98123.81
2022-11-05T09:00:04.189Z,98131.63
2022-11-05T09:01:08.278Z,98118.84
2022-11-05T09:02:11.648Z,98128.44
2022-11-05T09:03:16.190Z,98126.13
2022-11-05T09:04:20.717Z,98126.25
2022-11-05T09:05:24.527Z,98122.97
2022-11-05T09:06:28.341Z,98131.75
2022-11-05T09:07:31.358Z,98128.16
2022-11-05T09:08:35.310Z,98123.09
2022-11-05T09:09:38.151Z,98124.06
2022-11-05T09:10:42.689Z,98131.03
2022-11-05T09:12:10.650Z,98124.88
2022-11-05T09:13:17.729Z,98121.47
2022-11-05T09:14:21.315Z,98131.75
2022-11-05T09:15:25.417Z,98136.25
2022-11-05T09:16:29.239Z,98135.41
2022-11-05T09:17:32.058Z,98139.00
2022-11-05T09:18:35.848Z,98130.34
2022-11-05T09:19:40.315Z,98138.16
2022-11-05T09:20:44.496Z,98135.56
2022-11-05T09:21:47.323Z,98132.81
2022-11-05T09:22:51.291Z,98134.34
2022-11-05T09:23:55.208Z,98140.22
2022-11-05T09:24:57.911Z,98141.06
2022-11-05T09:26:01.816Z,98134.75
2022-11-05T09:27:04.567Z,98132.72
2022-11-05T09:28:16.181Z,98136.69
2022-11-05T09:29:20.880Z,98130.38
2022-11-05T09:30:23.749Z,98131.88
2022-11-05T09:31:28.259Z,98130.66
2022-11-05T09:32:31.437Z,98139.31
2022-11-05T09:33:35.710Z,98141.91
2022-11-05T09:34:44.980Z,98135.63
2022-11-05T09:35:48.915Z,98129.59
2022-11-05T09:36:52.723Z,98139.03
2022-11-05T09:38:00.598Z,98142.31
2022-11-05T09:39:05.710Z,98136.97
2022-11-05T09:40:09.842Z,98137.66
2022-11-05T09:41:17.462Z,98143.56
2022-11-05T09:42:22.847Z,98142.47
2022-11-05T09:43:31.814Z,98143.44
2022-11-05T09:44:41.981Z,98141.66
2022-11-05T09:45:45.822Z,98149.31
2022-11-05T09:46:52.597Z,98139.56
2022-11-05T09:47:58.477Z,98153.16
2022-11-05T09:49:05.568Z,98141.25
2022-11-05T09:50:14.552Z,98145.75
2022-11-05T09:51:23.681Z,98148.50
2022-11-05T09:52:29.240Z,98146.88
2022-11-05T09:53:33.101Z,98150.41
2022-11-05T09:54:36.948Z,98149.59
2022-11-05T09:55:42.564Z,98152.09
2022-11-05T09:56:46.654Z,98157.16
2022-11-05T09:57:53.028Z,98155.38
2022-11-05T09:59:00.732Z,98162.38
2022-11-05T10:00:08.738Z,98158.13
2022-11-05T10:01:15.965Z,98156.31
2022-11-05T10:02:20.599Z,98155.38
2022-11-05T10:03:25.785Z,98158.66
2022-11-05T10:04:31.410Z,98149.06
2022-11-05T10:05:38.811Z,98153.44
2022-11-05T10:06:53.628Z,98156.88
2022-11-05T10:07:59.998Z,98164.00
2022-11-05T10:09:07.064Z,98162.22
2022-11-05T10:10:23.427Z,98167.44
2022-11-05T10:11:31.268Z,98168.41
2022-11-05T10:12:41.020Z,98165.78
2022-11-05T10:13:47.562Z,98159.59
2022-11-05T10:14:56.772Z,98165.78
2022-11-05T10:16:02.830Z,98166.59
2022-11-05T10:17:12.174Z,98164.00
2022-11-05T10:18:21.033Z,98156.19
2022-11-05T10:19:27.400Z,98162.38
2022-11-05T10:20:35.890Z,98166.91
2022-11-05T10:22:05.076Z,98168.53
2022-11-05T10:23:15.465Z,98166.75
2022-11-05T10:24:20.854Z,98165.78
2022-11-05T10:25:25.719Z,98167.31
2022-11-05T10:26:30.072Z,98176.63
2022-11-05T10:27:34.749Z,98168.56
2022-11-05T10:28:40.599Z,98171.56
2022-11-05T10:29:44.496Z,98177.31
2022-11-05T10:30:52.835Z,98177.88
2022-11-05T10:31:58.009Z,98177.72
2022-11-05T10:33:03.769Z,98171.53
2022-11-05T10:34:11.602Z,98187.06
2022-11-05T10:35:18.663Z,98181.72
2022-11-05T10:36:25.991Z,98178.97
2022-11-05T10:37:29.628Z,98175.53
2022-11-05T10:38:33.988Z,98172.91
2022-11-05T10:39:37.173Z,98172.91
2022-11-05T10:40:48.378Z,98178.97
2022-11-05T10:42:04.202Z,98176.22
2022-11-05T10:43:13.388Z,98176.09
2022-11-05T10:44:27.710Z,98177.06
2022-11-05T10:45:40.261Z,98177.88
2022-11-05T10:46:47.685Z,98177.88
2022-11-05T10:48:02.091Z,98188.31
2022-11-05T10:49:19.422Z,98179.50
2022-11-05T10:50:26.058Z,98190.75
2022-11-05T10:51:31.628Z,98175.94
2022-11-05T10:52:36.279Z,98175.94
2022-11-05T10:53:40.434Z,98182.78
2022-11-05T10:54:43.469Z,98180.34
2022-11-05T10:55:49.393Z,98173.34
2022-11-05T10:56:53.276Z,98181.16
2022-11-05T10:57:57.334Z,98181.16
2022-11-05T10:59:06.686Z,98180.34
2022-11-05T11:00:24.281Z,98175.41
2022-11-05T11:01:28.276Z,98183.50
2022-11-05T11:02:31.396Z,98188.84
2022-11-05T11:03:40.361Z,98191.59
2022-11-05T11:04:43.272Z,98195.84
2022-11-05T11:05:47.019Z,98191.47
2022-11-05T11:06:53.009Z,98200.09
2022-11-05T11:08:03.391Z,98206.16
2022-11-05T11:09:18.739Z,98214.94
2022-11-05T11:10:23.820Z,98201.19
2022-11-05T11:11:29.119Z,98205.59
2022-11-05T11:12:40.837Z,98201.34
2022-11-05T11:13:53.045Z,98203.78
2022-11-05T11:15:03.023Z,98201.06
2022-11-05T11:16:16.030Z,98200.94
2022-11-05T11:17:28.051Z,98200.94
2022-11-05T11:18:37.315Z,98203.53
2022-11-05T11:19:43.780Z,98203.38
2022-11-05T11:20:46.869Z,98198.03
2022-11-05T11:22:18.890Z,98200.38
2022-11-05T11:23:22.755Z,98203.81
2022-11-05T11:24:32.455Z,98198.44
2022-11-05T11:25:42.141Z,98203.41
2022-11-05T11:26:44.872Z,98200.53
2022-11-05T11:27:48.651Z,98196.94
2022-11-05T11:28:57.681Z,98202.03
2022-11-05T11:30:02.978Z,98203.00
2022-11-05T11:31:08.510Z,98203.00
2022-11-05T11:32:15.604Z,98202.84
2022-11-05T11:33:23.157Z,98204.63
2022-11-05T11:34:30.697Z,98210.81
2022-11-05T11:35:38.358Z,98208.19
2022-11-05T11:36:46.612Z,98213.41
2022-11-05T11:37:53.128Z,98216.03
2022-11-05T11:39:00.937Z,98224.66
2022-11-05T11:40:06.470Z,98222.88
2022-11-05T11:41:24.480Z,98217.53
2022-11-05T11:42:31.175Z,98218.38
2022-11-05T11:43:37.652Z,98215.47
2022-11-05T11:44:42.729Z,98215.47
2022-11-05T11:45:48.738Z,98219.88
2022-11-05T11:46:55.062Z,98218.91
2022-11-05T11:47:58.248Z,98216.28
2022-11-05T11:49:03.180Z,98221.66
2022-11-05T11:50:07.586Z,98219.88
2022-11-05T11:51:21.160Z,98216.19
2022-11-05T11:52:30.127Z,98214.38
2022-11-05T11:53:36.681Z,98214.25
2022-11-05T11:54:40.585Z,98222.88
2022-11-05T11:55:58.219Z,98214.78
2022-11-05T11:57:02.102Z,98212.19
2022-11-05T11:58:07.973Z,98214.78
2022-11-05T11:59:27.269Z,98218.34
2022-11-05T12:00:50.252Z,98220.53
2022-11-05T12:02:37.080Z,98221.50
2022-11-05T12:03:44.606Z,98213.81
2022-11-05T12:05:04.952Z,98219.88
2022-11-05T12:06:22.599Z,98215.75
2022-11-05T12:07:41.398Z,98215.75
2022-11-05T12:08:58.352Z,98221.81
2022-11-05T12:10:20.311Z,98223.59
2022-11-05T12:11:28.893Z,98218.22
2022-11-05T12:12:38.448Z,98214.38
2022-11-05T12:13:58.301Z,98222.06
2022-11-05T12:15:05.660Z,98220.28
2022-11-05T12:16:16.212Z,98220.94
2022-11-05T12:17:31.551Z,98235.66
2022-11-05T12:18:40.649Z,98230.44
2022-11-05T12:20:09.370Z,98236.59
2022-11-05T12:21:29.436Z,98239.34
2022-11-05T12:22:53.815Z,98245.53
2022-11-05T12:24:16.943Z,98244.56
2022-11-05T12:25:23.726Z,98253.22
2022-11-05T12:26:33.370Z,98245.28
2022-11-05T12:27:53.562Z,98253.94
2022-11-05T12:29:18.800Z,98253.09
2022-11-05T12:30:24.111Z,98248.28
2022-11-05T12:31:33.810Z,98250.09
2022-11-05T12:32:47.579Z,98251.03
2022-11-05T12:33:58.299Z,98238.28
2022-11-05T12:35:11.383Z,98239.34
2022-11-05T12:36:23.931Z,98248.97
2022-11-05T12:37:32.675Z,98257.91
2022-11-05T12:38:52.113Z,98257.91
2022-11-05T12:40:17.598Z,98253.75
2022-11-05T12:41:26.453Z,98253.91
2022-11-05T12:42:40.390Z,98259.28
2022-11-05T12:43:55.431Z,98260.22
2022-11-05T12:45:02.690Z,98257.47
2022-11-05T12:46:16.309Z,98265.16
2022-11-05T12:47:33.251Z,98266.94
2022-11-05T12:48:52.525Z,98263.53
2022-11-05T12:50:06.667Z,98265.16
2022-11-05T12:51:18.721Z,98259.13
2022-11-05T12:52:34.732Z,98266.81
2022-11-05T12:53:55.510Z,98263.13
2022-11-05T12:55:04.578Z,98269.25
2022-11-05T12:56:15.668Z,98267.38
2022-11-05T12:57:18.841Z,98269.00
2022-11-05T12:58:25.322Z,98261.84
2022-11-05T12:59:34.129Z,98265.16
2022-11-05T13:00:38.756Z,98270.09
2022-11-05T13:01:46.454Z,98272.69
2022-11-05T13:02:54.534Z,98263.94
2022-11-05T13:04:02.265Z,98266.56
2022-11-05T13:05:06.691Z,98267.38
2022-11-05T13:06:13.779Z,98267.22
2022-11-05T13:07:20.918Z,98264.63
2022-11-05T13:08:25.880Z,98270.50